This is the latest recevied weather packets stored in our database for station/object AB0TJ. If no packets are shown the sender has not sent any weather packets the latest 10 day(s).
| Time | Temp. | Humidity | Pressure | Rain* | Wind** | Luminosity | Snow |
|---|---|---|---|---|---|---|---|
| 1777558699 | 8.89° C | 49% | 1017.3 hPa | 0 mm | - | 174 W/m² | - |
| 1777558173 | 8.33° C | 52% | 1017.3 hPa | 0 mm | - | 143 W/m² | - |
| 1777557619 | 7.22° C | 52% | 1017.3 hPa | 0 mm | - | 120 W/m² | - |
| 1777557044 | 6.11° C | 55% | 1017.3 hPa | 0 mm | - | 94 W/m² | - |
| 1777556549 | 5.56° C | 60% | 1017.1 hPa | 0 mm | - | 75 W/m² | - |
| 1777556004 | 4.44° C | 62% | 1017.1 hPa | 0 mm | - | 52 W/m² | - |
| 1777555484 | 3.89° C | 65% | 1017 hPa | 0 mm | - | 34 W/m² | - |
| 1777554964 | 3.33° C | 67% | 1017.2 hPa | 0 mm | - | 30 W/m² | - |
| 1777554394 | 2.78° C | 66% | 1016.9 hPa | 0 mm | - | 26 W/m² | - |
| 1777553859 | 2.78° C | 66% | 1017 hPa | 0 mm | - | 20 W/m² | - |
| 1777553372 | 2.78° C | 65% | 1016.6 hPa | 0 mm | - | 16 W/m² | - |
| 1777552889 | 3.33° C | 65% | 1016.6 hPa | 0 mm | - | 12 W/m² | - |
| 1777552313 | 3.33° C | 64% | 1016.8 hPa | 0 mm | - | 8 W/m² | - |
| 1777551778 | 3.33° C | 63% | 1016.4 hPa | 0 mm | - | 4 W/m² | - |
| 1777551294 | 3.33° C | 61% | 1016.5 hPa | 0 mm | - | 1 W/m² | - |
| 1777550714 | 3.33° C | 62% | 1016.4 hPa | 0 mm | - | 0 W/m² | - |
| 1777550149 | 3.33° C | 63% | 1016.5 hPa | 0 mm | - | 0 W/m² | - |
| 1777549569 | 3.33° C | 62% | 1016.3 hPa | 0 mm | - | 0 W/m² | - |
| 1777549084 | 3.33° C | 62% | 1016.6 hPa | 0 mm | - | 0 W/m² | - |
| 1777548519 | 3.33° C | 61% | 1016.2 hPa | 0 mm | - | 0 W/m² | - |
| 1777547979 | 3.89° C | 61% | 1016.4 hPa | 0 mm | - | 0 W/m² | - |
| 1777547424 | 3.89° C | 61% | 1016.2 hPa | 0 mm | - | 0 W/m² | - |
| 1777546889 | 3.89° C | 61% | 1016.3 hPa | 0 mm | - | 0 W/m² | - |
| 1777546289 | 3.89° C | 60% | 1016.1 hPa | 0 mm | - | 0 W/m² | - |
| 1777545802 | 3.89° C | 59% | 1016.3 hPa | 0 mm | - | 0 W/m² | - |
* Rain latest hour (hover to see other rain measurements)
** Current wind speed in m/s (hover to see current wind gust speed)